Terminal Aerodrome Forecast
Issued by NWS North Platte, NE

Home | Current Version | Previous Version | Graphics & Text | Print | Product List | Glossary On
Versions: 1 2 3 4 5 6 7 8 9 10 11 12 13 14 15 16 17 18 19 20 21 22 23 24 25
000
FTUS43 KLBF 091700
TAFVTN
TAF
KVTN 091720Z 0918/1018 15011KT P6SM VCTS SCT060CB BKN080
      TEMPO 0918/0921 5SM TSRA BKN050CB
     FM100000 15009KT P6SM SCT070
     FM101500 18014KT P6SM SCT150=

USA.gov is the U.S. government's official web portal to all federal, state and local government web resources and services.